x

9014098 - Fort Gratiot, Mi (ftgm4) Weather Station

10:54pm - Fri 31st Oct 2014 All times are CDT. -5 hours from GMT.

  • Wind
    46mph, 56mph gusts
  • Air Temp 42°f
  • Sea Pressure 1018.2mb
  • 9014098 - Fort Gratiot, Mi
  • 9014098 - Fort Gratiot, Mi

More Historic Weather Station data

Upgrade to MSW Pro to gain access to the past 30 days of data for over 8000 Wavebouys and Weather Stations around the globe.

Join Pro

Comparision Forecast

View Surf forecast
   
Fri 10/31 10:54pm 46 56 mph 1018.2mb 42f
10:48pm 45 54 mph 1018.2mb 42f
10:42pm 51 59 mph 1018.2mb 42f
10:36pm 48 56 mph 1018.1mb 42f
10:30pm 47 59 mph 1018.1mb 42f
10:24pm 49 56 mph 1018mb 42f
10:18pm 46 54 mph 1018mb 42f
10:12pm 46 54 mph 1017.9mb 42f
10:06pm 51 56 mph 1017.8mb 42f
10:00pm 48 55 mph 1017.7mb 42f
9:54pm 48 55 mph 1017.7mb 42f
9:48pm 47 56 mph 1017.6mb 42f
9:42pm 49 56 mph 1017.5mb 42f
9:36pm 52 60 mph 1017.5mb 42f
9:30pm 49 57 mph 1017.4mb 42f
9:24pm 51 60 mph 1017.2mb 42f
9:18pm 53 59 mph 1017mb 42f
9:12pm 51 56 mph 1016.8mb 42f
9:06pm 52 60 mph 1016.9mb 42f
9:00pm 49 56 mph 1016.9mb 41f
8:54pm 53 59 mph 1016.9mb 41f
8:42pm 49 61 mph 1016.6mb 42f
8:36pm 48 56 mph 1016.5mb 42f
8:30pm 54 59 mph 1016.5mb 42f
8:24pm 46 55 mph 1016.5mb 42f
8:18pm 52 57 mph 1016.4mb 41f
8:12pm 49 61 mph 1016.3mb 41f
8:06pm 49 59 mph 1016.3mb 42f
8:00pm 46 56 mph 1016.1mb 42f
7:54pm 51 59 mph 1016.2mb 41f
7:48pm 53 59 mph 1016.1mb 41f
7:42pm 54 59 mph 1015.6mb 41f
7:36pm 49 57 mph 1015.8mb 41f
7:24pm 46 59 mph 1015.4mb 42f
7:18pm 53 59 mph 1015.2mb 42f
7:12pm 53 60 mph 1015.2mb 42f
7:06pm 53 61 mph 1015mb 41f
7:00pm 53 62 mph 1014.8mb 41f
6:54pm 51 59 mph 1014.9mb 42f
6:48pm 51 61 mph 1014.8mb 42f
6:42pm 51 59 mph 1014.8mb 42f
6:36pm 51 57 mph 1014.5mb 42f
6:00pm 46 60 mph 1014.1mb 43f
5:54pm 48 57 mph 1013.8mb 42f
5:48pm 51 57 mph 1013.8mb 42f
5:42pm 51 56 mph 1013.5mb 42f
5:36pm 47 56 mph 1013.2mb 42f
5:30pm 51 56 mph 1013.2mb 42f
5:24pm 54 57 mph 1013.2mb 42f
5:18pm 51 57 mph 1013.1mb 42f
5:12pm 46 55 mph 1013.1mb 42f
5:06pm 48 55 mph 1012.8mb 42f
5:00pm 51 55 mph 1013mb 42f
4:54pm 47 54 mph 1012.7mb 42f
4:48pm 49 54 mph 1012.8mb 42f
4:42pm 45 51 mph 1012.6mb 43f
4:36pm 46 55 mph 1012.5mb 43f
4:30pm 45 54 mph 1012.3mb 43f
4:24pm 48 53 mph 1012.3mb 43f
4:18pm 49 54 mph 1012.1mb 43f
4:12pm 47 51 mph 1012.2mb 43f
4:06pm 47 52 mph 1012.1mb 43f
4:00pm 43 49 mph 1012.1mb 43f
3:54pm 45 54 mph 1011.9mb 43f
3:48pm 51 55 mph 1011.6mb 43f
3:42pm 41 48 mph 1011.5mb 44f
3:36pm 41 49 mph 1011.5mb 44f
3:30pm 38 51 mph 1011.2mb 45f
3:24pm 31 41 mph 1011.2mb 44f
3:18pm 20 23 mph 1011.7mb 44f
3:12pm 7 10 mph 1011.5mb 42f
3:06pm 7 13 mph 1011.5mb 42f
3:00pm 9 13 mph 1011.6mb 42f
2:54pm 8 13 mph 1011.6mb 42f
2:48pm 8 14 mph 1011.6mb 42f
2:36pm 10 16 mph 1011.5mb 42f
2:30pm 9 15 mph 1011.5mb 42f
2:24pm 11 14 mph 1011.5mb 42f
2:18pm 11 16 mph 1011.4mb 42f
2:12pm 8 16 mph 1011.3mb 43f
2:06pm 16 20 mph 1011.3mb 44f
2:00pm 13 18 mph 1011.2mb 44f
1:54pm 11 18 mph 1011.2mb 43f
1:48pm 9 14 mph 1011.2mb 43f
1:42pm 11 14 mph 1011.2mb 43f
1:36pm 11 16 mph 1011.2mb 44f
1:30pm 11 14 mph 1011.1mb 44f
1:24pm 14 15 mph 1011.1mb 44f
1:18pm 8 10 mph 1011.1mb 44f
12:54pm 8 9 mph 1011.2mb 44f
12:48pm 8 11 mph 1011.2mb 44f
12:42pm 9 11 mph 1011.1mb 44f
12:36pm 10 11 mph 1011.2mb 44f
12:30pm 9 11 mph 1011.2mb 44f
12:24pm 8 11 mph 1011.2mb 44f
12:18pm 9 10 mph 1011.2mb 44f
12:12pm 7 9 mph 1011.3mb 44f
12:06pm 8 10 mph 1011.3mb 44f
12:00pm 8 9 mph 1011.3mb 44f
11:54am 6 8 mph 1011.4mb 44f
11:48am 5 7 mph 1011.4mb 44f
11:42am 5 6 mph 1011.5mb 44f
11:36am 5 6 mph 1011.6mb 44f
11:30am 6
mph
1011.6mb 44f
11:24am 5 7 mph 1011.6mb 44f
11:18am 3 6 mph 1011.6mb 43f
11:12am 3 6 mph 1011.6mb 43f
11:06am 6 7 mph 1011.6mb 43f
10:54am 5 6 mph 1011.6mb 44f
10:48am 5 7 mph 1011.6mb 43f
10:42am 2 6 mph 1011.5mb 44f
10:36am 3 6 mph 1011.5mb 43f
10:30am 2 6 mph 1011.5mb 44f
10:24am 2 5 mph 1011.5mb 44f
10:18am 3 6 mph 1011.5mb 44f
10:12am 5
mph
1011.5mb 44f
10:06am 5 6 mph 1011.5mb 44f
10:00am 3 5 mph 1011.5mb 44f
9:54am 3 6 mph 1011.6mb 44f
9:48am 3 5 mph 1011.6mb 44f
9:42am 2 3 mph 1011.6mb 44f
9:36am 3
mph
1011.6mb 44f
9:30am 3 5 mph 1011.6mb 44f
9:24am 3 6 mph 1011.7mb 43f
9:18am 3 6 mph 1011.7mb 43f
9:12am 3 5 mph 1011.7mb 43f
9:06am 3 6 mph 1011.7mb 43f
9:00am 2 7 mph 1011.7mb 43f
8:54am 3 6 mph 1011.8mb 43f
8:48am 2 6 mph 1011.8mb 43f
8:42am 5 6 mph 1011.8mb 43f
8:36am 5 6 mph 1011.8mb 43f
8:30am 2 6 mph 1011.8mb 43f
8:24am 5 7 mph 1011.9mb 43f
8:18am 6 8 mph 1011.9mb 43f
8:12am 5 7 mph 1011.8mb 43f
8:06am 6 7 mph 1011.8mb 44f
8:00am 5 6 mph 1011.7mb 44f
7:54am 6 7 mph 1011.7mb 44f
7:48am 6 7 mph 1011.7mb 44f
7:42am 6 7 mph 1011.7mb 44f
7:36am 3 6 mph 1011.6mb 44f
7:30am 5 7 mph 1011.6mb 44f
7:24am 6 8 mph 1011.6mb 44f
7:18am 7 8 mph 1011.6mb 44f
7:12am 6 8 mph 1011.6mb 44f
7:06am 6 8 mph 1011.6mb 44f
7:00am 6 8 mph 1011.5mb 44f
6:54am 5 9 mph 1011.5mb 44f
6:48am 6 8 mph 1011.6mb 44f
6:42am 6 9 mph 1011.6mb 44f
6:36am 7 9 mph 1011.6mb 44f
6:30am 7 9 mph 1011.7mb 44f
6:24am 6 9 mph 1011.7mb 44f
6:18am 7 10 mph 1011.8mb 44f
6:12am 7 8 mph 1011.8mb 44f
6:06am 8 9 mph 1011.9mb 44f
6:00am 6 8 mph 1011.9mb 44f
5:54am 6 8 mph 1011.9mb 44f
5:48am 7 9 mph 1011.9mb 44f
5:42am 8 9 mph 1011.9mb 45f
5:36am 8 9 mph 1011.9mb 44f
5:30am 7 9 mph 1012mb 44f
5:24am 7 9 mph 1012.1mb 44f
5:18am 7 9 mph 1012.1mb 44f
5:12am 7 9 mph 1012.1mb 44f
5:06am 7 9 mph 1012.2mb 44f
5:00am 8 9 mph 1012.2mb 45f
4:54am 6 8 mph 1012.3mb 45f
4:48am 7 9 mph 1012.3mb 45f
4:42am 6 7 mph 1012.4mb 45f
4:36am 7 8 mph 1012.4mb 45f
4:30am 5 8 mph 1012.4mb 45f
4:24am 7 9 mph 1012.4mb 45f
4:18am 6 9 mph 1012.4mb 45f
4:12am 5 8 mph 1012.5mb 45f
4:06am 6 7 mph 1012.5mb 45f
4:00am 6 8 mph 1012.5mb 45f
3:54am 5 7 mph 1012.5mb 45f
3:48am 6 11 mph 1012.6mb 45f
3:42am 7 10 mph 1012.6mb 45f
3:36am 6 10 mph 1012.7mb 45f
3:30am 7 11 mph 1012.8mb 45f
3:24am 9 13 mph 1012.8mb 45f
3:18am 9 11 mph 1012.8mb 45f
3:12am 8 10 mph 1012.9mb 45f
3:06am 6 14 mph 1013mb 45f
3:00am 9 11 mph 1013.1mb 45f
2:54am 9 13 mph 1013.1mb 45f
2:48am 7 10 mph 1013.2mb 45f
2:42am 6 13 mph 1013.2mb 45f
2:36am 8 10 mph 1013.3mb 45f
2:30am 7 11 mph 1013.3mb 45f
2:24am 7 11 mph 1013.3mb 45f
2:18am 6 11 mph 1013.4mb -
2:12am 9 11 mph 1013.4mb -
2:06am 10 13 mph 1013.5mb -
2:00am 8 14 mph 1013.5mb 46f
1:54am 9 11 mph 1013.5mb 46f
1:48am 8 11 mph 1013.6mb 46f
1:42am 8 13 mph 1013.7mb 46f
1:36am 8 11 mph 1013.7mb 46f
1:30am 8 10 mph 1013.8mb 46f
1:24am 8 11 mph 1013.8mb 46f
1:18am  -  mph - 46f
1:12am  -  mph - 46f
1:06am  -  mph - 46f
1:00am 9 11 mph 1013.9mb 46f
12:54am 8 11 mph 1014mb 46f
12:48am 7 13 mph 1014.1mb 46f
12:42am 9 13 mph 1014.1mb 46f
12:36am 8 11 mph 1014.2mb 46f
12:30am 8 11 mph 1014.2mb 46f
12:24am 8 11 mph 1014.3mb 46f
12:18am 7 9 mph 1014.4mb 46f
12:12am 8 10 mph 1014.4mb 46f
12:06am 7 10 mph 1014.4mb 46f
12:00am 6 9 mph 1014.5mb 46f
Thu 10/30 11:54pm 7 9 mph 1014.5mb 46f
11:48pm 6 8 mph 1014.6mb 46f
11:42pm 8 11 mph 1014.7mb 46f
11:36pm 6 8 mph 1014.7mb 46f
11:30pm 5 8 mph 1014.7mb 46f
11:24pm 5 8 mph 1014.8mb 46f
11:18pm 5 7 mph 1014.8mb -
11:12pm 6 7 mph 1014.9mb 46f
11:06pm 6 8 mph 1014.9mb 46f
11:00pm 6 8 mph 1015mb 46f
10:54pm 3 9 mph 1015.1mb 46f
10:48pm 6 8 mph 1015.1mb 46f
10:42pm 6 8 mph 1015.2mb 46f
10:36pm 5 7 mph 1015.3mb 46f
10:30pm 6 8 mph 1015.3mb 46f
10:24pm 5 9 mph 1015.4mb 46f
8:24pm  -  mph 1016.3mb -
7:48pm 6 8 mph 1016.6mb 47f
7:42pm 8 10 mph 1016.6mb 47f
7:36pm 6 9 mph 1016.6mb 47f
7:30pm 7
mph
1016.6mb 46f
7:24pm 6 8 mph 1016.6mb 46f
7:18pm 6 10 mph 1016.7mb -
7:12pm 8 9 mph 1016.7mb 47f
7:06pm 6 8 mph 1016.8mb 46f
7:00pm 6 9 mph 1016.9mb 46f
6:54pm 7 8 mph 1017mb 46f
6:48pm 6 8 mph 1017mb 46f
6:42pm 7 9 mph 1017mb 47f
6:36pm 8 10 mph 1017mb 47f
6:30pm 8 9 mph 1017mb 47f
6:24pm 7 8 mph 1017.1mb 47f
6:18pm 6 7 mph 1017.1mb 47f
6:06pm 5 6 mph 1017.1mb 47f
6:00pm 3 6 mph 1017.2mb 47f
5:54pm 7
mph
1017.2mb 47f
5:48pm 5 6 mph 1017.2mb 47f
5:42pm 6
mph
1017.3mb 47f
5:36pm 6 7 mph 1017.3mb 47f
5:30pm 5
mph
1017.3mb 47f
5:24pm 5 6 mph 1017.3mb 47f
5:18pm 5 7 mph 1017.2mb 47f
5:12pm 6 7 mph 1017.2mb 47f
5:06pm 6 7 mph 1017.3mb 47f
5:00pm 5 7 mph 1017.3mb 47f
4:54pm 6 7 mph 1017.3mb 48f
4:48pm 6 8 mph 1017.3mb 47f
4:42pm 2 5 mph 1017.3mb 48f
4:36pm  -  2 mph 1017.3mb 48f
4:30pm  -  1 mph 1017.3mb 48f
4:24pm  -  3 mph 1017.3mb 48f
4:18pm 3 5 mph 1017.3mb 48f
4:06pm 1 2 mph 1017.3mb 48f
4:00pm 2
mph
1017.3mb 47f
3:42pm 2
mph
1017.3mb 47f
3:36pm 3 5 mph 1017.4mb 47f
3:30pm 3 5 mph 1017.3mb 47f
3:24pm 3 5 mph 1017.3mb 47f
3:18pm 3 5 mph 1017.4mb 47f
3:12pm 2 3 mph 1017.4mb 47f
3:06pm 3 6 mph 1017.4mb 47f
3:00pm 5 7 mph 1017.4mb 47f
2:54pm 6 7 mph 1017.4mb 47f
2:48pm 7 8 mph 1017.4mb 47f
2:42pm 7 8 mph 1017.4mb 47f
2:36pm 6 7 mph 1017.4mb 47f
2:30pm 6 7 mph 1017.5mb 47f
2:24pm 6 8 mph 1017.4mb 47f
2:18pm 7 9 mph 1017.4mb 47f
2:12pm 7 10 mph 1017.5mb 47f
2:06pm 8 9 mph 1017.5mb 47f
2:00pm 8 9 mph 1017.6mb 47f
1:54pm 8 9 mph 1017.7mb 47f
1:48pm 6 9 mph - -
1:42pm 7 9 mph 1017.7mb 47f
1:36pm 8
mph
1017.8mb 47f
1:30pm 6 8 mph 1017.8mb 47f
1:24pm 7 9 mph 1017.9mb 47f
1:18pm 8 9 mph 1017.9mb 47f
1:12pm 6 7 mph 1018mb 46f
1:06pm 7 9 mph 1018.1mb 46f
1:00pm 8 9 mph 1018.1mb 46f
12:54pm 7 9 mph 1018.2mb 46f
12:48pm 8
mph
1018.2mb 46f
12:42pm 7 9 mph 1018.3mb 46f
12:36pm 7 8 mph 1018.4mb 46f
12:30pm 7 9 mph 1018.4mb 46f
12:24pm 7 9 mph 1018.5mb 46f
12:18pm  -  mph - 46f
12:12pm  -  mph - 46f
12:06pm  -  mph - 46f
12:00pm  -  mph - 46f
11:54am  -  mph - 46f
11:48am 8 13 mph 1019mb 47f
11:42am 8 9 mph 1019mb 46f
11:36am 8 10 mph 1019.1mb 46f
11:30am 8 11 mph 1019.1mb 46f
11:24am 7 11 mph 1019.2mb 47f
11:18am 9 14 mph 1019.2mb 47f
11:12am 6 13 mph 1019.3mb 47f
11:06am 9 13 mph 1019.3mb 48f
11:00am 5 9 mph 1019.4mb 47f
10:54am 5 14 mph 1019.5mb 47f
10:48am 8 14 mph 1019.5mb 47f
10:42am 8 13 mph 1019.5mb 47f
10:36am 8 13 mph 1019.5mb 46f
10:30am 5 10 mph 1019.5mb 46f
10:24am 8 11 mph 1019.4mb 46f
10:18am 9 14 mph 1019.4mb 46f
10:12am 7 14 mph 1019.4mb 46f
10:06am 3 9 mph 1019.4mb 47f
10:00am 8 11 mph 1019.4mb 47f
9:54am 5 9 mph 1019.4mb 46f
9:48am 3 8 mph 1019.5mb 45f
9:42am 7 10 mph 1019.4mb 45f
9:36am 5 8 mph 1019.4mb 45f
9:30am 7 9 mph 1019.5mb 45f
9:24am 7 10 mph 1019.4mb 45f
9:18am 3 10 mph 1019.4mb 44f
9:12am 5 6 mph 1019.4mb 44f
9:06am 3 9 mph 1019.5mb 43f
9:00am 7 10 mph 1019.6mb 43f
8:54am 6 10 mph 1019.6mb 43f
8:48am 6 8 mph 1019.6mb 43f
8:42am 6 8 mph 1019.6mb 42f
8:36am 6 9 mph 1019.6mb 42f
8:30am 6 8 mph 1019.6mb 42f
8:24am 6 9 mph 1019.5mb 41f
8:18am 6 9 mph 1019.5mb 41f
8:12am 3 9 mph 1019.5mb 41f
8:06am 5 7 mph 1019.4mb 41f
8:00am 6 7 mph 1019.3mb 40f
7:54am 5 7 mph 1019.3mb 40f
7:48am 6 7 mph 1019.2mb 40f
7:42am 5 7 mph 1019.1mb 39f
7:36am 5 7 mph 1019mb 39f
7:30am 6 7 mph 1019mb 39f
7:24am 6
mph
1018.9mb 38f
7:18am 6 7 mph 1019mb 38f
7:12am 6
mph
1018.9mb 38f
7:06am 6 7 mph 1018.8mb 38f
6:54am 6
mph
1018.9mb 38f
6:48am 5 6 mph 1018.9mb 38f
6:42am 5 6 mph 1018.8mb 39f
6:36am 5 6 mph 1018.8mb 39f
6:30am 3 6 mph 1018.8mb 40f
6:24am 5 7 mph 1018.8mb 40f
6:18am 5 8 mph 1018.9mb 40f
6:12am 5 8 mph 1018.9mb 41f
6:06am 6 8 mph 1018.8mb 41f
6:00am 5 6 mph 1018.8mb 41f
5:54am 3 6 mph 1018.8mb 42f
5:48am 5 6 mph 1018.8mb 42f
5:42am 5 6 mph 1018.8mb 42f
5:36am 6 9 mph 1018.8mb 42f
5:30am 6 9 mph 1018.8mb 42f
5:24am 7 9 mph 1018.9mb 42f
5:18am 8 14 mph 1018.8mb 42f
5:12am 10 15 mph 1018.7mb 42f
5:06am 9 13 mph 1018.6mb 42f
5:00am 9 15 mph 1018.5mb 42f
4:54am 6 14 mph 1018.6mb 42f
4:48am 9 14 mph 1018.6mb 42f
4:42am 9 15 mph 1018.5mb 42f
4:36am 8 15 mph 1018.4mb 42f
4:30am 9 15 mph 1018.4mb 42f
4:24am 9 14 mph 1018.3mb 42f
4:18am 7 10 mph 1018.3mb 41f
4:12am 6 9 mph 1018.3mb 41f
4:06am 6 9 mph 1018.3mb 41f
4:00am 7 11 mph 1018.2mb 41f
3:54am 5 9 mph 1018.1mb 41f
3:48am 5 10 mph 1018.1mb 41f
3:42am 5 8 mph 1018mb 41f
3:36am 6 10 mph 1017.9mb 41f
3:30am 6 9 mph 1017.9mb 41f
3:24am 5 11 mph 1017.9mb 42f
3:18am 6 9 mph 1017.9mb 42f
3:12am 7 10 mph 1017.9mb 42f
3:06am 6 10 mph 1017.9mb 42f
3:00am 8 13 mph 1017.9mb 42f
2:54am 5 10 mph 1017.9mb 42f
2:48am 6 8 mph 1017.9mb 42f
2:42am 7 10 mph 1017.9mb 42f
2:36am 6 10 mph 1017.9mb 41f
2:30am 7 10 mph 1018mb 41f
2:24am 7 10 mph 1017.9mb 41f
2:18am 7 9 mph 1018mb 41f
2:12am 7 10 mph 1017.9mb 41f
2:06am 7 10 mph 1017.9mb 41f
2:00am 7 11 mph 1017.8mb 41f
1:54am 7 10 mph 1017.8mb 41f
1:48am 7 11 mph 1017.7mb 42f
1:42am 8 11 mph 1017.6mb 41f
1:36am 6 10 mph 1017.6mb 42f
1:30am 8 13 mph 1017.6mb 42f
1:24am 7 13 mph 1017.5mb 42f
1:18am 7 10 mph 1017.6mb 42f
1:12am 9 14 mph 1017.5mb 42f
1:06am 8 13 mph 1017.5mb 43f
1:00am 8 11 mph 1017.5mb 43f
12:54am 7 10 mph 1017.5mb 43f
12:48am 7 11 mph 1017.4mb 43f
12:42am 6 11 mph 1017.4mb 43f
12:36am 7 11 mph 1017.4mb 43f
12:30am 7 13 mph 1017.4mb 44f
12:24am 8 15 mph 1017.3mb 44f
12:18am 8 15 mph 1017.3mb 44f
12:12am 9 11 mph 1017.3mb 44f
12:06am 8 13 mph 1017.3mb 44f
12:00am 7 13 mph 1017.3mb 44f
Wed 10/29 11:54pm 9 14 mph 1017.3mb 44f
11:48pm 7 15 mph 1017.3mb 44f
11:42pm 7 15 mph 1017.3mb 44f
11:36pm 8 14 mph 1017.3mb 44f
11:30pm 8 15 mph 1017.2mb 44f
11:24pm 8 15 mph 1017.2mb 44f
11:18pm 8 13 mph 1017.2mb 44f
11:12pm 8 15 mph 1017.1mb 44f
11:06pm 3 7 mph 1017.2mb 44f
11:00pm 6 8 mph 1017.2mb 44f
10:54pm 7 13 mph 1017.1mb 44f
10:48pm 10 16 mph 1017.1mb 45f
10:42pm 10 16 mph 1017.1mb 45f
10:36pm 8 13 mph 1017.1mb 44f
10:30pm 6 11 mph 1017mb 44f
10:24pm 6 11 mph 1017mb 44f
10:18pm 6 11 mph 1017mb 44f
10:12pm 8 13 mph 1016.9mb 45f
10:06pm 9 13 mph 1016.9mb 45f
10:00pm 8 14 mph 1016.8mb 45f
9:54pm 6 10 mph 1016.7mb 45f
9:48pm 8 11 mph 1016.7mb 45f
9:42pm 6 10 mph 1016.6mb 45f
9:36pm 7 9 mph 1016.6mb 45f
9:30pm 6 11 mph 1016.6mb 45f
9:24pm 7 14 mph 1016.6mb 45f
9:18pm 7 10 mph 1016.6mb 45f
9:12pm 8 11 mph 1016.6mb 45f
9:06pm 6 8 mph 1016.6mb 45f
9:00pm 6 10 mph 1016.6mb 45f
8:54pm 7 10 mph 1016.6mb 45f
8:48pm 8 14 mph 1016.5mb 45f
8:42pm 7 11 mph 1016.4mb 45f
8:36pm 8 11 mph 1016.3mb 45f
8:30pm 7 10 mph 1016.3mb 46f
8:24pm 8 13 mph 1016.3mb 46f
8:18pm 7 14 mph 1016.2mb 46f
8:12pm 8 14 mph 1016.2mb 46f
8:06pm 9 14 mph 1016.1mb 46f
8:00pm 9 15 mph 1016mb 46f
7:54pm 8 14 mph 1016mb 46f
7:48pm 10 17 mph 1016mb 46f
7:42pm 9 14 mph 1016.1mb 46f
7:36pm 7 11 mph 1016mb 46f
7:30pm 8 14 mph 1016mb 46f
7:24pm 6 10 mph 1016mb 46f
7:18pm 6 10 mph 1016mb 46f
7:12pm 8 10 mph - -
7:06pm 6 8 mph 1015.9mb 45f
7:00pm 5 9 mph 1015.9mb 45f
6:54pm 5 8 mph 1015.9mb 45f
6:48pm 5 7 mph 1015.8mb 45f
6:42pm 6 8 mph 1015.7mb 45f
6:36pm 5 8 mph 1015.7mb 45f
6:30pm 6 8 mph 1015.6mb 45f
6:24pm 6 8 mph 1015.6mb 46f
6:18pm 6 9 mph 1015.5mb 46f
6:12pm 6 8 mph 1015.4mb 46f
6:06pm 6 11 mph 1015.3mb 47f
6:00pm 3 8 mph 1015.2mb 47f
5:54pm 5 8 mph 1015.2mb 47f
5:48pm 7 14 mph - -
5:42pm 7 11 mph 1015.1mb 47f
5:36pm 6 11 mph 1015mb 47f
5:30pm 8 11 mph 1015mb 47f
5:24pm 10 14 mph 1014.9mb 47f
5:18pm 8 11 mph 1014.8mb 47f
5:06pm 7 11 mph 1014.7mb 47f
5:00pm 10 14 mph 1014.6mb -
4:54pm 10 13 mph 1014.6mb 47f
4:48pm 11 15 mph 1014.5mb 48f
4:42pm 8 13 mph 1014.4mb 48f
4:36pm 9 15 mph 1014.4mb 48f
4:30pm 8 14 mph 1014.3mb 49f
4:24pm 10 15 mph 1014.2mb 49f
4:18pm 9 14 mph 1014.2mb 49f
4:12pm 10 16 mph 1014.1mb 49f
4:06pm 8 14 mph 1014mb 48f
4:00pm 10 16 mph 1013.9mb 48f
3:54pm 10 16 mph 1013.9mb 48f
3:48pm 9 15 mph 1013.9mb -
3:42pm 10 17 mph 1013.9mb 48f
3:36pm 10 15 mph 1013.9mb 48f
3:30pm 10 17 mph 1013.9mb 47f
3:24pm 9 15 mph 1013.8mb 47f
3:18pm 9 17 mph 1013.8mb 47f
3:12pm 10 14 mph 1013.7mb 47f
3:06pm 14 22 mph 1013.7mb 47f
2:54pm 11 22 mph 1013.5mb 48f
2:48pm 11 17 mph 1013.4mb 49f
2:42pm 10 18 mph 1013.3mb 49f
2:36pm 9 16 mph 1013.2mb 49f
2:30pm 10 17 mph 1013.1mb 50f
2:24pm 7 13 mph 1013.1mb 50f
2:18pm 8 14 mph 1013mb -
2:12pm 9 15 mph 1013mb 50f
2:06pm 9 16 mph 1012.9mb 50f
2:00pm 11 16 mph 1012.9mb 50f
1:54pm 9 15 mph 1012.8mb 50f
1:48pm 8 14 mph 1012.9mb 50f
1:42pm 10 18 mph 1012.9mb 50f
1:36pm 11 18 mph 1012.9mb 50f
1:30pm 16 24 mph 1012.8mb 50f
1:24pm 10 18 mph 1012.8mb 51f
1:18pm 13 20 mph 1012.8mb 50f
1:12pm 11 16 mph 1012.8mb 50f
1:06pm 10 18 mph 1012.8mb 50f
1:00pm 10 17 mph 1012.8mb 50f
12:54pm 14 20 mph 1012.9mb 50f
12:48pm 17 22 mph 1012.9mb 50f
12:42pm 13 22 mph 1012.9mb 49f
12:36pm 15 24 mph 1012.9mb 49f
12:30pm 13 17 mph 1012.9mb 49f
12:24pm 5 14 mph 1012.9mb 49f
12:18pm 9 15 mph 1012.9mb 49f
12:12pm 10 17 mph 1012.9mb 49f
12:06pm 11 16 mph 1012.9mb 49f
11:54am 8 18 mph 1012.9mb 49f
11:48am 11 16 mph 1012.9mb 49f
11:42am 8 15 mph 1012.9mb 49f
11:36am 10 16 mph 1012.9mb 49f
11:30am 11 16 mph 1013mb 49f
11:24am 11 16 mph 1013mb 49f
11:18am 10 20 mph 1013mb 49f
11:12am 11 17 mph 1013mb 49f
11:06am 11 22 mph 1013mb 49f
11:00am 10 20 mph 1013mb 49f
10:54am 14 15 mph 1013mb 49f
10:48am 7 18 mph 1013mb -
10:42am 11 16 mph 1013mb 48f
10:36am 11 17 mph 1013mb 48f
10:30am 13 17 mph 1012.9mb 48f
10:24am 8 20 mph 1012.9mb 48f
10:18am 9 20 mph 1012.8mb 48f
10:12am 13 23 mph 1012.8mb 48f
10:06am 9 15 mph 1012.8mb 48f
9:54am 10 20 mph 1012.6mb 48f
9:48am 6 14 mph 1012.6mb 49f
9:42am 10 15 mph 1012.5mb 49f
9:36am 16 21 mph 1012.4mb 49f
9:30am 10 20 mph 1012.3mb 49f
9:24am 10 15 mph 1012.3mb 49f
9:18am 10 20 mph 1012.2mb 49f
9:12am 11 21 mph 1012.2mb 49f
9:06am 8 17 mph 1012.2mb 49f
9:00am 11 18 mph 1012.1mb 48f
8:54am 10 18 mph 1012.1mb 49f
8:48am 11 18 mph 1012.1mb 49f
8:42am 11 16 mph 1012.2mb 48f
8:36am 11 16 mph 1012.2mb 48f
8:30am 8 15 mph 1012.2mb 48f
8:24am 10 16 mph 1012.1mb 47f
8:18am 9 15 mph 1012.1mb 47f
8:12am 8 14 mph 1012.1mb 47f
8:06am 10 14 mph 1012.1mb 47f
7:54am 9 14 mph 1011.9mb 46f
7:48am 8 13 mph 1011.9mb 46f
7:42am 9 14 mph 1011.9mb 46f
7:30am 10 14 mph 1011.9mb 46f
7:18am 8 13 mph 1011.8mb 46f
7:12am 9 11 mph 1011.8mb 46f
7:06am 10 14 mph 1011.8mb 46f
7:00am 7 14 mph 1011.8mb 46f
6:54am 8 11 mph 1011.8mb 46f
6:48am 8 11 mph 1011.8mb 46f
6:42am 9 11 mph 1011.8mb 46f
6:36am 8 14 mph 1011.8mb 47f
6:30am 9 14 mph 1011.8mb 47f
6:24am 10 16 mph 1011.7mb 47f
6:18am 10 14 mph 1011.8mb 47f
6:12am 8 14 mph 1011.7mb 47f
6:06am 9 14 mph 1011.7mb 47f
6:00am 9 14 mph 1011.8mb 47f
5:54am 6 10 mph 1011.8mb 47f
5:48am 7 14 mph 1011.8mb 47f
5:42am 8 13 mph 1011.8mb 47f
5:36am 9 13 mph 1011.7mb 47f
5:30am 7 11 mph 1011.8mb 47f
5:24am 8 15 mph 1011.8mb 47f
5:18am 10 14 mph 1011.8mb 47f
5:12am 8 10 mph 1011.8mb 47f
5:06am 8 13 mph 1011.8mb 47f
5:00am 9 11 mph 1011.8mb 47f
4:54am 8 13 mph 1011.8mb 47f
4:48am 7 14 mph 1011.8mb 47f
4:42am 9 14 mph 1011.8mb 47f
4:36am 8 14 mph 1011.8mb 47f
4:30am 9 13 mph 1011.7mb 47f
4:24am 9 14 mph 1011.6mb 48f
4:18am 8 14 mph 1011.7mb 48f
4:12am 8 13 mph 1011.7mb 48f
4:06am 9 13 mph 1011.7mb 48f
4:00am 9 14 mph 1011.7mb 48f
3:54am 10 15 mph 1011.6mb 48f
3:48am 9 16 mph 1011.7mb 48f
3:42am 10 15 mph 1011.6mb 48f
3:36am 9 14 mph 1011.6mb 48f
3:30am 8 14 mph 1011.6mb 48f
3:24am 9 14 mph 1011.6mb 48f
3:18am 9 13 mph 1011.6mb 48f
3:12am 6 11 mph 1011.6mb 48f
3:06am 8 11 mph 1011.6mb 48f
3:00am 7 11 mph 1011.6mb 48f
2:54am 8 13 mph 1011.6mb 48f
2:48am 8 10 mph 1011.5mb 48f
2:42am 7 10 mph 1011.6mb 48f
2:36am 7 10 mph 1011.6mb 48f
2:30am 8 13 mph 1011.6mb 48f
2:24am 7 10 mph 1011.5mb 48f
2:18am 6 8 mph 1011.6mb 48f
2:12am 6 8 mph 1011.5mb 48f
2:06am 6 9 mph 1011.6mb 48f
2:00am 7 9 mph 1011.5mb 49f
1:54am 7 9 mph 1011.5mb 49f
1:48am 7 10 mph 1011.5mb 49f
1:42am 7 9 mph 1011.5mb 49f
1:36am 7 9 mph 1011.4mb 49f
1:30am 6 7 mph 1011.3mb 49f
1:24am 5 8 mph 1011.3mb 49f
1:18am 5 7 mph 1011.2mb 49f
1:12am 5 7 mph 1011.3mb 49f
1:06am 6 10 mph 1011.3mb 49f
1:00am 5 9 mph 1011.3mb 49f
12:54am 6 8 mph 1011.4mb 49f
12:48am 7 9 mph 1011.3mb 49f
12:42am 6 9 mph 1011.4mb 50f
12:36am 5 8 mph 1011.5mb 50f
12:30am 6 9 mph 1011.5mb 50f
12:24am 6 7 mph 1011.5mb 50f
12:18am 5 6 mph 1011.3mb 50f
12:12am 6 9 mph 1011.3mb 50f
12:06am 6 8 mph 1011.4mb 50f
12:00am 6 14 mph 1011.4mb 50f
Tue 10/28 11:54pm 8 11 mph 1011.4mb 50f
11:48pm 6 9 mph 1011.5mb 50f
11:42pm 7 13 mph 1011.5mb 50f
11:36pm 7 13 mph 1011.4mb 50f
11:30pm 7 9 mph 1011.4mb 50f
11:24pm 5 8 mph 1011.3mb 50f
11:18pm 6 9 mph 1011.3mb 49f
11:12pm 6 8 mph 1011.3mb 50f
11:06pm 5 8 mph 1011.3mb 50f
11:00pm 5 9 mph 1011.3mb 50f
10:42pm 7 10 mph 1011.1mb 50f
10:36pm 8 13 mph 1011mb 50f
10:30pm 8 14 mph 1011mb 50f
10:24pm 7 14 mph 1011.1mb 50f
10:18pm 9 14 mph 1011.1mb 51f
10:12pm 8 15 mph 1011.2mb 51f
10:06pm 9 11 mph 1011.2mb 51f
10:00pm 8 13 mph 1011.2mb 51f
9:54pm 8 17 mph 1011.1mb 51f
9:48pm 10 15 mph 1011mb 51f
9:42pm 7 13 mph 1010.9mb 51f
9:36pm 9 20 mph 1011mb 51f
9:30pm 9 20 mph 1011mb 52f
9:24pm 10 16 mph 1011mb 52f
9:18pm 14 22 mph 1011mb 52f
9:12pm 15 20 mph 1011mb 52f
9:06pm 10 17 mph 1010.9mb 53f
9:00pm 9 18 mph 1010.9mb 53f
8:54pm 15 21 mph 1010.9mb 53f
8:48pm 13 20 mph 1010.8mb 53f
8:42pm 10 22 mph 1010.7mb 53f
8:36pm 10 17 mph 1010.6mb 53f
8:30pm 15 23 mph 1010.5mb 54f
8:24pm 14 22 mph 1010.5mb 54f
8:18pm 11 20 mph 1010.5mb 54f
8:12pm 11 17 mph 1010.2mb 54f
8:06pm 11 15 mph 1009.9mb 54f
8:00pm 10 13 mph 1009.8mb 55f
7:54pm 8 13 mph 1009.7mb 55f
7:48pm 6 15 mph 1009.5mb 55f
7:42pm 10 15 mph 1009.4mb 55f
7:36pm 8 14 mph 1009.3mb 55f
7:30pm 7 13 mph 1009.3mb 56f
7:24pm 8 11 mph 1009.2mb 56f
7:18pm 7 10 mph 1009.1mb 56f
7:12pm 7 11 mph 1009.1mb 56f
7:06pm 7 13 mph 1008.9mb 56f
7:00pm 6 10 mph 1008.7mb 56f
6:54pm 6 8 mph 1008.6mb 56f
6:48pm 6 7 mph 1008.5mb 55f
6:42pm 6 7 mph 1008.5mb 56f
6:36pm 6 7 mph 1008.4mb 56f
6:30pm 5 6 mph 1008.2mb 56f
6:24pm 6 8 mph 1008.1mb 56f
6:18pm 6 7 mph 1008.1mb 57f
6:12pm 6 7 mph 1008mb 58f
6:06pm 5 8 mph 1008mb 58f
6:00pm 6 8 mph 1008mb 58f
5:54pm 7 10 mph 1007.9mb 59f
5:48pm 7 13 mph 1007.7mb 59f
5:42pm 7 13 mph 1007.6mb 59f
5:36pm 7 13 mph 1007.5mb 60f
5:30pm 9 13 mph 1007.4mb 60f
5:24pm 8 16 mph 1007.3mb 60f
5:18pm 11 15 mph 1007.2mb 60f
5:12pm 13 18 mph 1007.1mb 61f
5:00pm 16 23 mph 1007mb 61f
4:48pm 16 23 mph 1006.7mb 62f
4:42pm 14 21 mph 1006.7mb 62f
4:36pm 16 24 mph 1006.6mb 62f
4:30pm 13 25 mph 1006.5mb 62f
4:24pm 16 26 mph 1006.4mb 62f
4:18pm 16 25 mph 1006.3mb 62f
4:12pm 11 20 mph 1006.3mb 62f
4:06pm 14 21 mph 1006.2mb 62f
4:00pm 17 24 mph 1006.2mb 62f
3:54pm 14 21 mph 1006.3mb 62f
3:48pm 10 20 mph 1006.3mb 62f
3:42pm 9 20 mph 1006.4mb 62f
3:36pm 13 21 mph 1006.4mb 62f
3:30pm 10 22 mph 1006.4mb 62f
3:24pm 13 20 mph 1006.3mb 62f
3:18pm 11 18 mph 1006.3mb 62f
3:12pm 14 22 mph 1006.1mb 62f
3:06pm 13 20 mph 1006mb 62f
3:00pm 15 24 mph 1006mb 62f
2:54pm 14 18 mph 1006.1mb 61f
2:48pm 10 15 mph 1006.1mb 61f
2:42pm 10 20 mph 1005.9mb 61f
2:36pm 13 20 mph 1005.9mb 61f
2:30pm 8 17 mph 1005.9mb 61f
2:24pm 10 15 mph 1005.7mb 61f
2:18pm 13 18 mph 1005.7mb -
2:12pm 11 15 mph 1005.8mb 60f
2:06pm 9 20 mph 1006mb 60f
2:00pm 11 18 mph 1006.1mb 60f
1:54pm 10 16 mph 1005.9mb 59f
1:48pm 10 17 mph 1005.9mb 59f
1:42pm 10 22 mph 1006mb 59f
1:36pm 15 23 mph 1006mb 59f
1:30pm 10 18 mph 1006.1mb 60f
1:24pm 11 20 mph 1006mb 60f
1:18pm 11 17 mph 1005.8mb 60f
1:12pm 9 18 mph 1005.7mb 61f
1:06pm 14 20 mph 1005.7mb 61f
1:00pm 14 22 mph 1005.8mb 61f
12:54pm 16 25 mph 1005.6mb 62f
12:48pm 20 30 mph 1005.4mb 61f
12:42pm 8 13 mph 1005.2mb 62f
12:36pm 10 18 mph 1005mb 62f
12:30pm 14 21 mph 1005mb 63f
12:24pm 11 20 mph 1005mb 63f
12:18pm 14 24 mph 1005mb 63f
12:12pm 13 23 mph 1005mb 63f
12:06pm 15 25 mph 1005mb 63f
12:00pm 13 20 mph 1005.1mb 63f
11:54am 10 18 mph 1005.1mb 63f
11:48am 13 20 mph 1005.1mb 63f
11:42am 10 18 mph 1005mb 63f
11:36am 11 20 mph 1005.1mb 62f
11:30am 13 22 mph 1005.1mb 62f
11:24am 11 18 mph 1004.9mb 62f
11:18am 10 17 mph 1005.1mb 62f
11:12am 11 20 mph 1005.4mb 62f
11:06am 15 22 mph 1005.5mb 62f
11:00am 13 20 mph 1005.5mb 62f
10:54am 14 22 mph 1005.1mb 62f
10:48am 15 20 mph 1004.8mb -
10:42am 13 18 mph 1004.9mb 62f
10:36am 11 16 mph 1004.9mb 62f
10:30am 11 18 mph 1004.9mb 62f
10:24am 13 20 mph 1004.5mb 61f
10:18am 13 18 mph 1004.5mb 61f
10:12am 14 17 mph 1004.5mb 61f
10:06am 10 15 mph 1004.6mb 61f
10:00am 11 17 mph 1004.7mb 61f
9:54am 10 15 mph 1004.8mb 61f
9:48am 14 22 mph 1004.9mb 62f
9:42am 14 20 mph 1004.9mb 62f
9:36am 13 22 mph 1004.8mb 62f
9:30am 16 24 mph 1004.8mb 62f
9:24am 17 22 mph 1004.8mb 62f
9:18am 17 24 mph 1005mb 63f
9:12am 10 23 mph 1005.2mb 63f
9:06am 15 18 mph 1005.5mb 63f
9:00am 10 15 mph 1005.5mb 62f
8:54am 13 18 mph 1005.6mb 63f
8:48am 14 21 mph 1005.5mb 63f
8:42am 13 17 mph 1005.5mb 64f
8:36am 14 20 mph 1005.6mb 64f
8:30am 14 20 mph 1005.5mb 64f
8:24am 13 20 mph 1005.4mb 64f
8:18am 15 20 mph 1005.1mb 64f
8:12am 14 18 mph 1005mb 64f
8:06am 14 18 mph 1005mb 64f
8:00am 13 17 mph 1004.8mb 64f
7:54am 13 17 mph 1004.8mb 64f
7:48am 13 18 mph 1004.8mb 64f
7:42am 11 16 mph 1004.7mb 64f
7:36am 9 14 mph 1004.7mb 63f
7:30am 9 15 mph 1004.8mb 63f
7:24am 8 16 mph 1004.9mb 64f
7:18am 9 15 mph 1004.9mb 64f
7:12am 9 15 mph 1004.9mb 64f
7:06am 8 15 mph 1004.9mb 64f
7:00am 10 15 mph 1004.9mb 64f
6:54am 10 18 mph 1004.9mb 64f
6:48am 10 15 mph 1004.9mb 64f
6:42am 13 17 mph 1004.9mb 64f
6:36am 11 17 mph 1005mb 64f
6:30am 11 16 mph 1004.9mb 64f
6:24am 9 13 mph 1004.9mb 64f
6:18am 9 11 mph 1004.8mb 64f
6:12am 10 16 mph 1004.8mb 64f
6:06am 8 15 mph 1004.9mb 63f
6:00am 9 14 mph 1004.8mb 63f
5:54am 7 15 mph 1004.8mb 63f
5:48am 9 11 mph 1004.6mb 63f
5:42am 9 14 mph 1004.7mb 63f
5:36am 11 15 mph 1004.9mb 64f
5:30am 10 14 mph 1005mb 64f
5:24am 8 15 mph 1005mb 64f
5:18am 8 13 mph - 63f
5:12am 7 11 mph - 63f
5:06am 7 13 mph - 63f
5:00am 7 10 mph 1005.1mb 63f